Time;durP1;ratioP1;P1;durP2;ratioP2;P2;SDS_P1;SDS_P2;PMS_P1;PMS_P2;Temp;Humidity;BMP_temperature;BMP_pressure;BME280_temperature;BME280_humidity;BME280_pressure;Samples;Min_cycle;Max_cycle;Signal;HPM_P1;HPM_P2
2023/09/07 00:00:18;;;;;;;;;8.20;5.60;;;;;26.09;44.71;101201.91;5060693;28;45474;-48
2023/09/07 00:02:44;;;;;;;;;8.25;8.00;;;;;25.79;44.70;101151.09;5078455;27;46699;-46
2023/09/07 00:05:09;;;;;;;;;11.75;8.50;;;;;26.05;45.15;101190.66;5078531;27;45466;-43
2023/09/07 00:07:35;;;;;;;;;10.50;9.00;;;;;26.03;45.58;101192.75;5078528;27;45779;-46
2023/09/07 00:10:02;;;;;;;;;10.00;7.00;;;;;26.02;45.23;101190.28;5078368;27;45394;-47
2023/09/07 00:12:28;;;;;;;;;9.20;7.20;;;;;26.03;45.77;101191.94;5078280;27;45692;-50
2023/09/07 00:14:54;;;;;;;;;2.25;2.25;;;;;26.02;45.89;101185.66;5093797;27;45391;-48
2023/09/07 00:17:20;;;;;;;;;6.40;6.40;;;;;25.96;45.79;101186.63;5078431;27;45428;-50
2023/09/07 00:19:48;;;;;;;;;7.00;4.00;;;;;25.98;45.73;101180.94;5078189;27;45386;-49
2023/09/07 00:22:14;;;;;;;;;5.80;5.40;;;;;25.97;45.37;101187.47;5077889;27;45696;-47
2023/09/07 00:24:39;;;;;;;;;9.00;8.00;;;;;25.97;45.83;101184.72;5078049;27;45460;-49
2023/09/07 00:27:06;;;;;;;;;11.50;9.25;;;;;25.90;45.59;101176.66;5078179;27;45384;-49
2023/09/07 00:29:31;;;;;;;;;6.60;6.60;;;;;25.84;45.75;101169.44;5078489;27;45460;-48
2023/09/07 00:31:56;;;;;;;;;9.00;6.75;;;;;25.83;45.20;101170.50;5077917;27;45410;-49
2023/09/07 00:34:22;;;;;;;;;10.50;7.25;;;;;25.79;45.93;101170.16;5078094;27;45347;-50
2023/09/07 00:36:47;;;;;;;;;10.25;8.25;;;;;25.79;46.07;101175.63;5077795;28;45354;-48
2023/09/07 00:39:12;;;;;;;;;6.25;6.25;;;;;25.76;45.84;101169.78;5077901;28;45295;-48
2023/09/07 00:41:38;;;;;;;;;7.50;6.00;;;;;25.75;45.85;101179.03;5077868;28;46196;-45
2023/09/07 00:44:04;;;;;;;;;9.00;6.50;;;;;25.75;45.80;101181.75;5077646;27;45396;-48
2023/09/07 00:46:29;;;;;;;;;10.00;7.50;;;;;25.72;46.09;101188.50;5078070;28;45620;-47
2023/09/07 00:48:56;;;;;;;;;7.25;6.00;;;;;25.67;46.42;101182.09;5078008;28;45428;-48
2023/09/07 00:51:21;;;;;;;;;6.20;6.20;;;;;25.65;46.02;101190.50;5077866;28;45655;-47
2023/09/07 00:53:47;;;;;;;;;10.25;6.75;;;;;25.62;46.32;101185.53;5059168;28;45418;-47
2023/09/07 00:56:12;;;;;;;;;5.75;5.75;;;;;25.55;46.46;101176.63;5077813;28;45447;-47
2023/09/07 00:58:38;;;;;;;;;10.75;7.75;;;;;25.57;46.87;101182.66;5077466;28;45581;-49
2023/09/07 01:01:03;;;;;;;;;10.00;7.50;;;;;25.58;46.86;101177.00;5077326;27;46118;-48
2023/09/07 01:03:29;;;;;;;;;7.50;6.00;;;;;25.57;46.82;101183.47;5077461;27;45287;-47
2023/09/07 01:06:12;;;;;;;;;9.75;7.00;;;;;25.50;46.14;101174.63;5077400;28;45908;-46
2023/09/07 01:08:46;;;;;;;;;6.40;6.20;;;;;25.45;47.06;101169.06;5077448;27;45430;-46
2023/09/07 01:11:16;;;;;;;;;9.40;8.20;;;;;25.45;46.99;101170.91;5077268;28;45689;-47
2023/09/07 01:13:44;;;;;;;;;6.40;6.40;;;;;25.42;47.31;101169.50;5077401;27;45370;-47
2023/09/07 01:16:11;;;;;;;;;6.60;6.60;;;;;25.38;47.22;101165.59;5077338;27;45300;-43
2023/09/07 01:18:38;;;;;;;;;9.00;7.80;;;;;25.34;47.24;101167.13;5077191;27;45447;-45
2023/09/07 01:21:07;;;;;;;;;9.00;7.60;;;;;25.35;47.48;101172.31;5076843;28;46524;-45
2023/09/07 01:23:35;;;;;;;;;8.40;7.80;;;;;25.29;47.26;101176.00;5076353;27;45446;-46
2023/09/07 01:26:02;;;;;;;;;8.60;8.20;;;;;25.33;47.64;101177.19;5058900;28;45334;-45
2023/09/07 01:28:28;;;;;;;;;12.20;8.20;;;;;25.08;47.68;101136.53;5076642;28;45311;-45
2023/09/07 01:30:54;;;;;;;;;6.50;6.00;;;;;25.28;47.68;101174.34;5077017;28;46656;-47
2023/09/07 01:33:19;;;;;;;;;6.75;6.25;;;;;25.26;47.71;101162.03;5077244;28;45438;-45
2023/09/07 01:35:45;;;;;;;;;7.50;7.50;;;;;25.20;47.38;101165.66;5077234;27;45393;-46
2023/09/07 01:38:10;;;;;;;;;9.75;8.25;;;;;25.21;47.50;101170.91;5077035;27;45453;-45
2023/09/07 01:40:35;;;;;;;;;6.50;6.50;;;;;25.16;47.56;101159.03;5076569;28;45949;-48
2023/09/07 01:43:01;;;;;;;;;7.00;6.25;;;;;25.18;47.58;101163.19;5076734;28;45999;-47
2023/09/07 01:45:26;;;;;;;;;5.75;5.75;;;;;25.16;47.30;101164.47;5076809;27;45356;-45
2023/09/07 01:47:52;;;;;;;;;9.75;8.50;;;;;25.09;47.68;101154.53;5077207;28;45324;-47
2023/09/07 01:50:18;;;;;;;;;6.00;6.00;;;;;25.07;48.17;101153.06;5076668;28;47047;-47
2023/09/07 01:52:47;;;;;;;;;7.60;6.20;;;;;25.08;47.55;101161.03;5076700;28;45445;-46
2023/09/07 01:55:12;;;;;;;;;7.80;7.80;;;;;25.05;47.83;101158.75;5076190;27;45425;-46
2023/09/07 01:57:38;;;;;;;;;6.75;6.75;;;;;25.02;47.53;101161.91;5076952;28;45459;-43
2023/09/07 02:00:05;;;;;;;;;8.00;8.00;;;;;24.99;48.02;101164.28;5076304;28;46154;-46
2023/09/07 02:02:30;;;;;;;;;9.20;8.40;;;;;24.98;48.26;101154.44;5076342;28;45378;-44
2023/09/07 02:04:56;;;;;;;;;10.50;9.00;;;;;25.01;48.02;101165.72;5076897;28;45523;-43
2023/09/07 02:07:21;;;;;;;;;7.75;7.00;;;;;25.01;48.55;101165.72;5076983;28;45307;-45
2023/09/07 02:09:47;;;;;;;;;7.75;6.50;;;;;25.04;48.67;101161.72;5076418;28;46169;-44
2023/09/07 02:12:12;;;;;;;;;9.75;7.00;;;;;25.04;48.39;101162.53;5076499;28;45331;-44
2023/09/07 02:14:37;;;;;;;;;9.75;6.75;;;;;25.01;48.14;101163.00;5076492;28;45774;-45
2023/09/07 02:17:03;;;;;;;;;12.25;9.00;;;;;24.95;48.79;101153.03;5076783;28;45267;-44
2023/09/07 02:19:28;;;;;;;;;11.75;9.75;;;;;24.94;47.91;101156.81;5076206;28;45964;-49
2023/09/07 02:21:54;;;;;;;;;8.50;7.75;;;;;24.91;48.67;101149.13;5076435;28;45426;-46
2023/09/07 02:24:19;;;;;;;;;9.00;8.50;;;;;24.92;48.54;101160.84;5076325;27;45979;-47
2023/09/07 02:26:45;;;;;;;;;7.00;7.00;;;;;24.89;47.94;101153.94;5076551;28;45359;-50
2023/09/07 02:29:13;;;;;;;;;11.00;9.00;;;;;24.92;48.05;101158.13;5076058;27;46553;-50
2023/09/07 02:31:42;;;;;;;;;10.60;8.40;;;;;24.92;48.49;101158.94;5076081;28;45455;-44
2023/09/07 02:34:07;;;;;;;;;8.40;7.60;;;;;24.89;48.51;101146.63;5076104;27;45285;-46
2023/09/07 02:36:37;;;;;;;;;9.00;6.50;;;;;24.92;48.67;101158.94;5076277;28;45662;-47
2023/09/07 02:39:03;;;;;;;;;9.40;6.60;;;;;24.83;48.20;101144.84;5075737;27;46195;-50
2023/09/07 02:41:29;;;;;;;;;7.40;7.20;;;;;24.87;48.21;101148.75;5078400;27;45279;-48
2023/09/07 02:43:54;;;;;;;;;9.50;9.50;;;;;24.90;48.51;101163.78;5079815;27;45463;-46
2023/09/07 02:46:19;;;;;;;;;9.25;5.75;;;;;24.88;48.00;101158.56;5079921;27;45422;-47
2023/09/07 02:48:45;;;;;;;;;6.00;6.00;;;;;24.77;48.24;101140.31;5095392;27;46351;-47
2023/09/07 02:51:10;;;;;;;;;8.25;6.25;;;;;24.82;48.13;101148.63;5079392;27;45414;-48
2023/09/07 02:53:35;;;;;;;;;9.50;8.00;;;;;24.82;47.87;101159.50;5079421;27;45383;-49
2023/09/07 02:56:04;;;;;;;;;11.50;7.25;;;;;24.79;47.84;101150.97;5079745;27;45359;-49
2023/09/07 02:58:29;;;;;;;;;10.80;8.20;;;;;24.79;47.64;101145.53;5078910;27;46546;-50
2023/09/07 03:00:55;;;;;;;;;12.25;8.75;;;;;24.77;47.96;101150.34;5079364;28;45249;-50
2023/09/07 03:03:20;;;;;;;;;8.75;8.75;;;;;24.76;47.67;101149.53;5079417;27;45376;-47
2023/09/07 03:05:45;;;;;;;;;8.75;7.00;;;;;24.75;47.75;101155.22;5061601;28;45459;-45
2023/09/07 03:08:11;;;;;;;;;10.75;8.50;;;;;24.75;47.73;101147.06;5079204;27;45280;-50
2023/09/07 03:10:39;;;;;;;;;8.75;8.25;;;;;24.72;48.05;101147.50;5079041;27;45439;-50
2023/09/07 03:13:05;;;;;;;;;7.80;7.80;;;;;24.67;48.07;101144.66;5079402;27;45326;-50
2023/09/07 03:15:31;;;;;;;;;11.00;9.40;;;;;24.68;47.58;101146.31;5079423;27;45387;-50
2023/09/07 03:17:57;;;;;;;;;8.75;8.75;;;;;24.63;48.56;101142.38;5079372;28;46441;-51
2023/09/07 03:20:22;;;;;;;;;8.00;8.00;;;;;24.62;48.40;101143.44;5079026;27;45276;-48
2023/09/07 03:22:48;;;;;;;;;7.75;7.75;;;;;24.61;48.87;101146.41;5079191;27;45422;-46
2023/09/07 03:25:14;;;;;;;;;9.00;9.00;;;;;24.60;48.96;101142.00;5079337;27;45452;-47
2023/09/07 03:27:39;;;;;;;;;13.20;8.60;;;;;24.59;48.96;101146.63;5078863;27;45356;-50
2023/09/07 03:30:06;;;;;;;;;8.75;8.75;;;;;24.55;49.18;101133.72;5079026;28;45307;-50
2023/09/07 03:32:33;;;;;;;;;9.20;9.00;;;;;24.53;49.05;101136.69;5078093;28;45271;-47
2023/09/07 03:35:07;;;;;;;;;6.80;6.80;;;;;24.55;49.10;101141.88;5079095;27;45496;-49
2023/09/07 03:37:32;;;;;;;;;8.00;8.00;;;;;24.50;49.30;101139.00;5078701;28;45430;-49
2023/09/07 03:39:57;;;;;;;;;8.50;8.50;;;;;24.53;49.17;101141.28;5078281;27;45815;-51
2023/09/07 03:42:23;;;;;;;;;9.25;7.50;;;;;24.51;48.94;101146.09;5078754;27;45449;-47
2023/09/07 03:44:48;;;;;;;;;10.00;7.00;;;;;24.49;49.51;101143.63;5078648;27;45477;-50
2023/09/07 03:47:15;;;;;;;;;9.50;9.50;;;;;24.44;49.53;101139.91;5078448;27;47066;-49
2023/09/07 03:49:40;;;;;;;;;13.20;10.00;;;;;24.42;49.19;101142.88;5078597;27;45759;-46
2023/09/07 03:52:06;;;;;;;;;9.50;9.50;;;;;24.33;49.30;101134.16;5077987;28;45314;-51
2023/09/07 03:54:31;;;;;;;;;10.75;8.75;;;;;24.36;49.58;101146.50;5078666;28;45394;-55
2023/09/07 03:56:57;;;;;;;;;7.25;7.00;;;;;24.34;49.72;101151.31;5078254;27;46429;-54
2023/09/07 03:59:23;;;;;;;;;10.00;8.25;;;;;24.33;49.74;101153.19;5078534;27;45298;-56
2023/09/07 04:01:48;;;;;;;;;12.25;8.00;;;;;24.30;49.47;101144.66;5078492;27;45317;-54
2023/09/07 04:04:13;;;;;;;;;8.75;8.25;;;;;24.30;49.40;101147.38;5078656;27;45268;-55
2023/09/07 04:06:39;;;;;;;;;9.25;9.25;;;;;24.28;49.49;101158.50;5078042;27;46002;-55
2023/09/07 04:09:04;;;;;;;;;7.50;7.00;;;;;24.27;49.69;101151.41;5077285;27;45451;-56
2023/09/07 04:11:30;;;;;;;;;11.00;9.00;;;;;24.28;49.80;101157.66;5078333;27;45331;-56
2023/09/07 04:13:55;;;;;;;;;10.00;8.75;;;;;24.26;49.94;101157.06;5078441;28;45310;-54
2023/09/07 04:16:20;;;;;;;;;10.50;9.00;;;;;24.28;49.75;101158.50;5078231;27;46028;-56
2023/09/07 04:18:46;;;;;;;;;14.50;14.00;;;;;24.27;49.43;101150.53;5077662;27;45385;-54
2023/09/07 04:21:11;;;;;;;;;72.67;53.33;;;;;24.27;49.98;101153.28;5078062;28;45316;-55
2023/09/07 04:23:36;;;;;;;;;36.25;31.00;;;;;24.26;49.69;101149.72;5078185;27;45437;-53
2023/09/07 04:26:10;;;;;;;;;18.00;16.25;;;;;24.25;49.77;101144.53;5077981;27;46106;-56
2023/09/07 04:28:36;;;;;;;;;14.00;13.20;;;;;24.24;49.74;101154.56;5077944;27;45422;-52
2023/09/07 04:31:02;;;;;;;;;11.60;10.80;;;;;24.21;50.00;101154.19;5078055;27;45394;-53
2023/09/07 04:33:30;;;;;;;;;12.50;10.25;;;;;24.19;49.90;101149.00;5078261;27;45421;-51
2023/09/07 04:35:56;;;;;;;;;4.00;4.00;;;;;24.17;50.14;101139.38;5077803;28;46165;-56
2023/09/07 04:38:21;;;;;;;;;9.00;8.50;;;;;24.14;49.69;101146.09;5077851;27;45434;-55
2023/09/07 04:40:46;;;;;;;;;10.50;9.75;;;;;24.17;50.36;101139.38;5077834;28;45868;-56
2023/09/07 04:43:12;;;;;;;;;10.75;10.75;;;;;24.12;49.99;101138.19;5078024;27;45318;-55
2023/09/07 04:45:45;;;;;;;;;11.00;8.50;;;;;24.14;49.37;101138.81;5059369;28;46162;-57
2023/09/07 04:48:11;;;;;;;;;12.40;9.00;;;;;24.14;49.65;101138.81;5059535;28;45513;-57
2023/09/07 04:50:37;;;;;;;;;10.80;9.80;;;;;24.12;49.40;101137.34;5077830;27;45307;-56
2023/09/07 04:53:02;;;;;;;;;10.50;9.25;;;;;24.12;49.47;101150.94;5078072;28;45386;-54
2023/09/07 04:55:27;;;;;;;;;11.25;8.75;;;;;24.11;49.52;101152.00;5077391;27;46349;-57
2023/09/07 04:57:53;;;;;;;;;10.50;10.50;;;;;24.08;49.54;101147.84;5077607;28;45414;-55
2023/09/07 05:00:18;;;;;;;;;9.50;9.00;;;;;24.01;50.11;101147.06;5077543;28;45315;-56
2023/09/07 05:02:44;;;;;;;;;10.00;8.00;;;;;24.04;49.72;101154.78;5076799;28;45406;-57
2023/09/07 05:05:09;;;;;;;;;11.50;10.75;;;;;23.99;49.58;101157.34;5077113;27;46691;-56
2023/09/07 05:07:35;;;;;;;;;11.25;11.25;;;;;23.96;49.92;101163.22;5077560;27;45244;-52
2023/09/07 05:10:00;;;;;;;;;12.25;9.75;;;;;23.89;49.88;101138.00;5077234;27;45380;-52
2023/09/07 05:12:26;;;;;;;;;12.50;11.50;;;;;23.93;50.41;101160.13;5077780;27;45413;-55
2023/09/07 05:14:51;;;;;;;;;15.00;11.25;;;;;23.92;50.28;101170.16;5077166;27;45486;-56
2023/09/07 05:17:16;;;;;;;;;10.75;10.50;;;;;23.90;50.42;101159.53;5077377;28;45392;-56
2023/09/07 05:19:42;;;;;;;;;11.25;10.00;;;;;23.88;50.83;101163.53;5077223;28;45262;-56
2023/09/07 05:22:07;;;;;;;;;12.75;9.00;;;;;23.92;50.34;101164.75;5077461;27;45310;-56
2023/09/07 05:24:32;;;;;;;;;17.50;10.75;;;;;23.92;50.37;101163.91;5076983;27;47015;-56
2023/09/07 05:26:58;;;;;;;;;13.50;9.75;;;;;23.95;50.79;101168.91;5076772;27;45340;-56
2023/09/07 05:29:23;;;;;;;;;10.50;10.50;;;;;23.97;50.61;101170.31;5077465;28;45260;-57
2023/09/07 05:31:48;;;;;;;;;12.75;12.75;;;;;23.98;50.28;101169.28;5077069;28;45533;-56
2023/09/07 05:34:13;;;;;;;;;12.00;11.25;;;;;23.98;50.28;101173.91;5076922;27;46021;-56
2023/09/07 05:36:39;;;;;;;;;13.50;11.75;;;;;23.96;49.91;101174.09;5057391;28;45425;-56
2023/09/07 05:39:04;;;;;;;;;11.00;9.25;;;;;23.94;50.13;101170.78;5076868;28;45382;-56
2023/09/07 05:41:30;;;;;;;;;11.25;10.75;;;;;23.94;50.39;101176.22;5077127;28;45335;-56
2023/09/07 05:43:55;;;;;;;;;15.00;12.25;;;;;23.96;50.05;101176.81;5076552;27;45390;-56
2023/09/07 05:46:20;;;;;;;;;14.00;13.25;;;;;23.98;50.28;101182.06;5076911;27;45381;-57
2023/09/07 05:48:46;;;;;;;;;15.25;12.50;;;;;23.95;50.26;101172.44;5076397;28;45304;-53
2023/09/07 05:51:11;;;;;;;;;14.00;10.25;;;;;23.99;50.68;101176.38;5077272;27;45372;-56
2023/09/07 05:53:39;;;;;;;;;14.75;11.00;;;;;23.99;49.88;101181.81;5076570;28;46170;-54
2023/09/07 05:56:04;;;;;;;;;9.40;9.40;;;;;23.97;50.16;101170.31;5076463;27;45498;-57
2023/09/07 05:58:30;;;;;;;;;12.75;9.75;;;;;24.01;50.30;101184.28;5076809;28;45305;-56
2023/09/07 06:00:55;;;;;;;;;12.25;9.00;;;;;23.99;50.45;101183.72;5076674;27;45649;-54
2023/09/07 06:03:20;;;;;;;;;11.00;11.00;;;;;24.02;49.86;101183.22;5076458;27;45745;-55
2023/09/07 06:05:46;;;;;;;;;14.00;11.75;;;;;23.94;49.82;101189.81;5076379;28;45409;-54
2023/09/07 06:08:11;;;;;;;;;13.25;11.50;;;;;23.96;50.16;101184.97;5076695;27;45456;-55
2023/09/07 06:10:36;;;;;;;;;43.33;32.33;;;;;23.95;50.03;101182.50;5076530;28;45453;-55
2023/09/07 06:13:02;;;;;;;;;62.00;48.00;;;;;23.92;50.16;101182.94;5076118;27;45735;-55
2023/09/07 06:15:29;;;;;;;;;13.75;12.75;;;;;23.95;49.75;101180.59;5075971;27;45329;-55
2023/09/07 06:17:54;;;;;;;;;11.20;9.00;;;;;23.92;49.94;101196.53;5076282;28;45445;-55
2023/09/07 06:20:20;;;;;;;;;13.00;12.00;;;;;23.84;50.63;101181.31;5076073;27;45439;-54
2023/09/07 06:22:45;;;;;;;;;11.75;11.75;;;;;23.95;50.21;101198.78;5076029;28;46456;-56
2023/09/07 06:25:11;;;;;;;;;16.75;13.00;;;;;23.94;50.69;101192.53;5076032;27;45351;-55
2023/09/07 06:27:36;;;;;;;;;12.75;10.50;;;;;23.95;50.31;101201.50;5076065;28;45476;-55
2023/09/07 06:30:02;;;;;;;;;16.50;13.00;;;;;24.00;50.02;101198.94;5076422;27;45265;-55
2023/09/07 06:32:28;;;;;;;;;13.00;11.60;;;;;23.96;50.22;101193.13;5075790;27;46387;-54
2023/09/07 06:34:53;;;;;;;;;15.25;12.75;;;;;24.00;50.49;101199.78;5076295;28;45300;-54
2023/09/07 06:37:18;;;;;;;;;16.50;13.50;;;;;24.01;50.24;101192.44;5075373;28;45498;-53
2023/09/07 06:39:44;;;;;;;;;16.25;12.50;;;;;23.99;50.39;101192.69;5076075;28;45403;-51
2023/09/07 06:42:10;;;;;;;;;14.25;10.50;;;;;23.97;50.28;101183.91;5075902;27;45290;-52
2023/09/07 06:44:35;;;;;;;;;9.40;9.00;;;;;23.99;50.96;101184.53;5075793;27;45429;-54
2023/09/07 06:47:01;;;;;;;;;11.00;11.00;;;;;24.12;49.94;101191.72;5076199;28;45334;-54
2023/09/07 06:49:29;;;;;;;;;14.50;11.50;;;;;24.14;50.48;101192.31;5075329;27;45326;-54
2023/09/07 06:51:55;;;;;;;;;13.00;11.00;;;;;24.15;49.73;101194.81;5073830;27;46077;-55
2023/09/07 06:54:20;;;;;;;;;15.25;12.00;;;;;24.17;49.55;101200.03;5074916;28;45512;-56
2023/09/07 06:56:45;;;;;;;;;15.50;11.25;;;;;24.18;49.78;101200.84;5072813;28;46332;-55
2023/09/07 06:59:11;;;;;;;;;13.50;10.50;;;;;24.15;49.57;101196.72;5072836;28;45425;-56
2023/09/07 07:01:36;;;;;;;;;13.50;9.00;;;;;24.18;49.53;101198.13;5072308;28;45491;-57
2023/09/07 07:04:01;;;;;;;;;14.50;11.75;;;;;24.18;49.74;101200.84;5072312;28;45506;-56
2023/09/07 07:06:27;;;;;;;;;15.50;14.25;;;;;24.34;49.41;101205.69;5072533;28;45827;-56
2023/09/07 07:08:52;;;;;;;;;13.00;12.25;;;;;24.50;48.95;101205.13;5072777;27;45404;-54
2023/09/07 07:11:17;;;;;;;;;17.75;15.00;;;;;25.08;48.05;101190.13;5072117;28;46026;-57
2023/09/07 07:13:43;;;;;;;;;12.25;10.75;;;;;25.96;46.51;101202.97;5072251;28;45418;-57
2023/09/07 07:16:08;;;;;;;;;15.00;14.00;;;;;26.58;45.07;101205.16;5087930;27;45515;-56
2023/09/07 07:18:33;;;;;;;;;14.25;13.50;;;;;26.96;44.03;101185.41;5072733;27;45853;-55
2023/09/07 07:20:59;;;;;;;;;12.00;10.25;;;;;27.36;43.30;101190.81;5071987;27;45422;-56
2023/09/07 07:23:24;;;;;;;;;13.00;12.75;;;;;27.89;42.44;101199.59;5072444;28;45411;-56
2023/09/07 07:25:51;;;;;;;;;11.00;11.00;;;;;28.43;41.47;101190.78;5072006;28;45465;-56
2023/09/07 07:28:16;;;;;;;;;12.80;10.00;;;;;29.19;40.34;101197.13;5075745;28;45474;-56
2023/09/07 07:30:41;;;;;;;;;11.25;11.25;;;;;30.27;38.61;101201.53;5075349;28;48776;-57
2023/09/07 07:33:07;;;;;;;;;13.25;12.25;;;;;31.37;36.60;101190.31;5075610;28;46392;-56
2023/09/07 07:35:36;;;;;;;;;15.75;12.00;;;;;32.39;35.45;101187.38;5075548;27;45378;-56
2023/09/07 07:38:03;;;;;;;;;14.00;11.00;;;;;33.23;33.44;101184.69;5075508;28;45580;-51
2023/09/07 07:40:29;;;;;;;;;11.80;10.80;;;;;33.72;32.71;101181.00;5072755;28;45511;-46
2023/09/07 07:42:54;;;;;;;;;13.25;10.00;;;;;34.41;32.44;101181.59;5075472;27;45506;-44
2023/09/07 07:45:21;;;;;;;;;16.00;13.00;;;;;34.97;32.13;101186.34;5075153;28;46366;-45
2023/09/07 07:47:46;;;;;;;;;9.60;9.60;;;;;35.41;30.46;101190.66;5075534;28;45486;-45
2023/09/07 07:50:12;;;;;;;;;8.75;8.25;;;;;35.89;29.83;101179.28;5074986;28;45953;-42
2023/09/07 07:52:37;;;;;;;;;14.00;11.00;;;;;36.61;28.94;101186.97;5075108;28;45312;-45
2023/09/07 07:55:03;;;;;;;;;10.00;10.00;;;;;37.30;27.73;101189.53;5075640;28;45343;-46
2023/09/07 07:57:28;;;;;;;;;11.50;9.50;;;;;37.86;26.99;101186.16;5074844;28;45350;-44
2023/09/07 07:59:56;;;;;;;;;8.50;7.00;;;;;38.42;27.39;101186.50;5075158;27;45857;-47
2023/09/07 08:02:21;;;;;;;;;13.80;10.00;;;;;38.87;25.67;101195.41;5073061;28;45548;-45
2023/09/07 08:04:47;;;;;;;;;12.25;9.25;;;;;39.09;26.43;101191.63;5075267;28;45487;-46
2023/09/07 08:07:12;;;;;;;;;11.00;11.00;;;;;39.26;25.37;101184.44;5075539;28;46487;-45
2023/09/07 08:09:38;;;;;;;;;9.25;8.25;;;;;39.60;24.94;101189.91;5074582;28;46467;-45
2023/09/07 08:12:03;;;;;;;;;8.75;8.25;;;;;40.15;24.81;101185.47;5074863;28;45456;-46
2023/09/07 08:14:29;;;;;;;;;9.00;9.00;;;;;40.42;24.42;101192.53;5075131;28;45375;-44
2023/09/07 08:16:57;;;;;;;;;10.80;9.80;;;;;40.61;23.28;101192.09;5075416;28;45451;-47
2023/09/07 08:19:22;;;;;;;;;12.20;9.20;;;;;40.98;22.87;101192.31;5074073;28;46593;-47
2023/09/07 08:21:48;;;;;;;;;12.25;10.00;;;;;41.34;22.70;101189.66;5075131;28;45451;-47
2023/09/07 08:24:13;;;;;;;;;7.25;7.25;;;;;41.29;24.38;101201.03;5075134;28;45465;-44
2023/09/07 08:26:39;;;;;;;;;10.25;8.75;;;;;41.23;23.01;101207.19;5075120;28;45442;-45
2023/09/07 08:29:05;;;;;;;;;8.00;8.00;;;;;40.57;23.19;101205.91;5074871;28;46281;-48
2023/09/07 08:31:33;;;;;;;;;9.80;9.40;;;;;39.81;24.29;101201.19;5074714;28;45497;-47
2023/09/07 08:34:00;;;;;;;;;7.40;7.40;;;;;39.75;24.72;101196.13;5072839;28;45587;-44
2023/09/07 08:36:28;;;;;;;;;9.80;7.80;;;;;39.70;24.60;101194.34;5075024;28;45464;-49
2023/09/07 08:38:53;;;;;;;;;9.80;9.40;;;;;39.60;24.13;101187.13;5074260;28;46216;-47
2023/09/07 08:41:20;;;;;;;;;8.25;7.75;;;;;39.58;24.68;101192.22;5074426;28;45601;-48
2023/09/07 08:43:46;;;;;;;;;12.00;10.80;;;;;39.52;25.16;101187.97;5074991;27;45435;-47
2023/09/07 08:46:17;;;;;;;;;10.50;10.50;;;;;39.61;25.10;101190.72;5075439;28;45437;-48
2023/09/07 08:48:44;;;;;;;;;9.00;9.00;;;;;39.76;25.07;101186.63;5074275;28;46385;-46
2023/09/07 08:51:12;;;;;;;;;11.60;9.80;;;;;40.00;24.82;101181.28;5073693;28;45462;-46
2023/09/07 08:53:39;;;;;;;;;10.40;8.00;;;;;39.89;25.13;101174.44;5074719;28;45478;-42
2023/09/07 08:56:09;;;;;;;;;9.00;8.20;;;;;40.20;24.72;101187.25;5074427;28;45411;-46
2023/09/07 08:58:36;;;;;;;;;12.00;9.00;;;;;40.41;24.52;101182.53;5074319;28;46146;-42
2023/09/07 09:01:01;;;;;;;;;8.20;8.20;;;;;40.65;24.06;101181.91;5074036;28;45457;-45
2023/09/07 09:03:28;;;;;;;;;10.75;10.00;;;;;41.08;23.83;101178.75;5074060;28;45552;-40
2023/09/07 09:05:56;;;;;;;;;10.40;9.20;;;;;41.52;22.67;101169.97;5074413;28;45402;-42
2023/09/07 09:08:24;;;;;;;;;10.20;7.60;;;;;42.34;22.07;101172.69;5073986;28;46221;-44
2023/09/07 09:10:58;;;;;;;;;12.00;9.60;;;;;44.03;20.91;101179.81;5074291;28;45504;-47
2023/09/07 09:13:32;;;;;;;;;11.40;11.00;;;;;46.67;18.94;101180.38;5074295;28;45487;-43
2023/09/07 09:16:01;;;;;;;;;10.20;8.60;;;;;48.57;16.72;101189.34;5074182;27;45512;-44
2023/09/07 09:18:27;;;;;;;;;10.00;8.40;;;;;49.42;16.33;101191.63;5073599;28;46731;-43
2023/09/07 09:20:53;;;;;;;;;11.00;9.00;;;;;50.26;15.38;101191.22;5074174;28;45559;-44
2023/09/07 09:23:18;;;;;;;;;8.00;8.00;;;;;51.15;15.39;101188.00;5073947;28;45367;-44
2023/09/07 09:25:43;;;;;;;;;13.25;9.25;;;;;51.89;13.71;101182.19;5074214;28;45270;-43
2023/09/07 09:28:10;;;;;;;;;9.25;8.25;;;;;52.54;13.94;101185.91;5073467;28;46181;-44
2023/09/07 09:30:36;;;;;;;;;10.00;9.40;;;;;53.02;13.83;101192.63;5073881;28;45461;-43
2023/09/07 09:33:02;;;;;;;;;11.00;9.80;;;;;53.59;12.94;101177.50;5074202;28;45573;-43
2023/09/07 09:35:29;;;;;;;;;11.40;9.40;;;;;54.20;12.54;101174.38;5073974;27;46875;-44
2023/09/07 09:37:55;;;;;;;;;10.60;9.20;;;;;54.96;12.38;101174.38;5073731;28;45548;-45
2023/09/07 09:40:20;;;;;;;;;10.00;9.00;;;;;55.68;11.96;101186.88;5073452;27;45521;-44
2023/09/07 09:42:46;;;;;;;;;8.50;8.25;;;;;56.16;11.19;101179.44;5073537;28;45465;-44
2023/09/07 09:45:12;;;;;;;;;9.25;8.75;;;;;56.91;11.02;101178.00;5074176;27;45908;-44
2023/09/07 09:47:42;;;;;;;;;11.25;10.75;;;;;57.30;10.21;101175.91;5073038;28;45607;-45
2023/09/07 09:50:10;;;;;;;;;10.60;10.00;;;;;57.21;11.78;101182.34;5073088;28;45528;-46
2023/09/07 09:52:36;;;;;;;;;10.20;10.00;;;;;57.36;10.00;101176.97;5073789;28;45952;-44
2023/09/07 09:55:05;;;;;;;;;13.80;10.40;;;;;57.79;10.70;101164.03;5073458;27;45485;-44
2023/09/07 09:57:32;;;;;;;;;9.60;9.60;;;;;57.89;11.81;101177.13;5073102;28;47083;-44
2023/09/07 09:59:59;;;;;;;;;10.20;9.00;;;;;57.67;10.47;101176.31;5073340;28;45378;-44
2023/09/07 10:02:26;;;;;;;;;13.00;10.40;;;;;57.88;10.74;101174.75;5073500;27;45490;-45
2023/09/07 10:04:52;;;;;;;;;13.80;10.20;;;;;58.12;10.35;101173.03;5073442;28;45422;-46
2023/09/07 10:07:19;;;;;;;;;8.40;8.40;;;;;58.18;9.48;101181.81;5088609;27;46476;-44
2023/09/07 10:09:44;;;;;;;;;13.80;11.20;;;;;58.52;10.36;101178.06;5072988;28;45398;-44
2023/09/07 10:12:13;;;;;;;;;8.25;8.25;;;;;58.60;10.05;101184.34;5073518;28;45422;-41
2023/09/07 10:14:40;;;;;;;;;13.20;10.40;;;;;58.60;9.67;101167.94;5073059;28;45525;-44
2023/09/07 10:17:06;;;;;;;;;9.80;9.80;;;;;58.78;9.70;101167.22;5073327;28;46180;-45
2023/09/07 10:19:32;;;;;;;;;11.00;9.40;;;;;58.73;9.39;101162.09;5072742;28;45486;-45
2023/09/07 10:21:57;;;;;;;;;12.25;11.50;;;;;58.97;9.21;101167.31;5073171;27;45432;-44
2023/09/07 10:24:27;;;;;;;;;1.25;0.00;;;;;59.21;9.65;101167.53;5073321;28;45775;-44
2023/09/07 10:27:02;;;;;;;;;11.40;10.00;;;;;59.31;9.99;101169.16;5054690;28;46193;-45
2023/09/07 10:29:28;;;;;;;;;13.20;11.40;;;;;59.79;8.99;101170.31;5072400;27;45670;-45
2023/09/07 10:31:53;;;;;;;;;12.50;10.00;;;;;59.84;9.07;101161.06;5073147;28;45343;-46
2023/09/07 10:34:19;;;;;;;;;13.50;11.75;;;;;59.60;10.08;101163.78;5073030;28;45533;-43
2023/09/07 10:36:45;;;;;;;;;15.75;11.50;;;;;59.65;8.42;101159.47;5072865;27;46246;-45
2023/09/07 10:39:12;;;;;;;;;11.40;9.40;;;;;59.81;9.36;101162.06;5072478;27;45492;-46
2023/09/07 10:41:45;;;;;;;;;10.60;10.60;;;;;59.77;9.83;101152.81;5072603;28;45919;-43
2023/09/07 10:44:12;;;;;;;;;13.40;12.00;;;;;59.92;9.03;101158.66;5073178;28;46437;-45
2023/09/07 10:46:39;;;;;;;;;9.00;9.00;;;;;60.12;9.89;101155.31;5072149;28;45447;-43
2023/09/07 10:49:08;;;;;;;;;11.60;8.60;;;;;59.91;9.66;101151.34;5072715;28;45906;-45
2023/09/07 10:51:40;;;;;;;;;11.40;10.60;;;;;59.62;9.51;101144.00;5072760;27;45579;-46
2023/09/07 10:54:22;;;;;;;;;12.20;10.60;;;;;59.64;9.39;101137.78;5072942;27;45427;-43
2023/09/07 10:56:49;;;;;;;;;9.40;9.40;;;;;59.63;9.97;101139.06;5072202;28;46630;-44
2023/09/07 10:59:15;;;;;;;;;9.20;9.20;;;;;59.48;9.17;101138.13;5069935;28;45457;-46
2023/09/07 11:01:41;;;;;;;;;28.60;25.60;;;;;59.69;9.31;101131.41;5073897;27;45465;-44
2023/09/07 11:04:08;;;;;;;;;28.25;27.50;;;;;59.94;9.46;101132.34;5076254;28;45257;-44
2023/09/07 11:06:34;;;;;;;;;8.60;8.60;;;;;59.58;9.04;101134.75;5075750;28;46453;-43
2023/09/07 11:09:00;;;;;;;;;8.60;8.60;;;;;59.65;9.56;101133.63;5075144;28;45455;-43
2023/09/07 11:11:26;;;;;;;;;13.80;11.20;;;;;59.40;9.70;101135.53;5075956;28;45478;-42
2023/09/07 11:13:52;;;;;;;;;9.60;9.60;;;;;59.22;8.99;101137.59;5076232;28;45533;-44